Hovedside
METAR-TAF:

METAR-TAF

Lufthavner :

Hans Christian Andersen Airport

Odense, Danmark

breddegrad: 55-29N, lengdegrad: 010-20E, høyde over havet: 17 m

Gjeldene værobservasjon

Denne rapporten ble laget for 58 minutter siden, klokken 15:50 UTC
Vind 17 kt fra Øst med vindkast opp mot 27 kt
Temperatur 5°C
Luftfuktighet 81%
Trykk 1021 hPa
Sikt 10 km eller mer
Få skyer i en høyde av 2200 ft
Brutte skyer i en høyde av 2800 ft

METAR: EKOD 201550Z 08017G27KT 9999 FEW022 BKN028 05/02 Q1021

Tid: 17:48 (16:48 UTC)

Varsel

Denne rapporten ble laget for 1 time og 51 minutter siden, klokken 14:57 UTC
Varsel gyldig fra 20. klokken 14 UTC til 20. klokken 17 UTC
Vind 18 kt fra Øst
Sikt 10 km eller mer
Brutte skyer i en høyde av 2000 ft
Midlertidig
fra 20. klokken 14 UTC til 20. klokken 17 UTC
Vind 20 kt fra Øst med vindkast opp mot 30 kt
Brutte skyer i en høyde av 1200 ft, Tårnskyer (cumulus).
lette regnbyger

TAF: EKOD 201457Z 2014/2017 08018KT 9999 BKN020 TEMPO 2014/2017 08020G30KT -SHRA BKN012TCU

Værobservasjoner og værvarsel for over 4000 flyplasser (METAR- og TAF-rapporter).

Tilgjengelige stasjoner er representert av de røde og gule prikkene på kartet.

Hold musepekeren over prikken for å se navnet på stasjonen.

Klikk så for å se værobservasjoner og -varsler.

For å forandre kartet kan du klikke på den grønne knappen med svart kryss for å zoome inn, på den grønne knappen med strek for å zoome ut, eller på de grønne pilene for å se tilstøtende kart.


METAR-TAF: